Weather at Mercy Hospital & Medical Center Heliport

Public forecast

Using degrees Fahrenheit for public forecast. Weather courtesy of forecast.io.

Closest aviation weather report (METAR) to Mercy Hospital & Medical Center Heliport

Closest report is San Diego International Airport, 1.8 nm (3.4 km) SW.

2023/04/01 18:51 (retrieved 1 hour ago)

KSAN 011851Z 29009KT 10SM FEW250 18/08 A3016 RMK AO2 SLP211 T01830083

Closest aviation forecast (TAF) to Mercy Hospital & Medical Center Heliport

Closest forecast is San Diego International Airport, 1.8 nm (3.4 km) SW.

2023/04/01 18:22 (retrieved 1 hour ago)

TAF KSAN 011720Z 0118/0224 29011KT P6SM FEW200 FM020300 VRB04KT P6SM FEW200 FM020900 VRB04KT P6SM BKN015 FM021600 VRB04KT P6SM SCT015 FM021900 26009KT P6SM SCT015